createdAt,value
2019-04-16T00:00:22.310Z,96.40
2019-04-16T00:02:56.771Z,96.30
2019-04-16T00:05:31.100Z,95.90
2019-04-16T00:08:26.536Z,96.50
2019-04-16T00:10:44.917Z,96.50
2019-04-16T00:13:16.415Z,96.30
2019-04-16T00:15:43.188Z,96.30
2019-04-16T00:18:09.963Z,96.10
2019-04-16T00:20:50.776Z,96.20
2019-04-16T00:23:25.438Z,96.30
2019-04-16T00:25:55.478Z,96.30
2019-04-16T00:28:20.889Z,96.40
2019-04-16T00:30:47.940Z,96.70
2019-04-16T00:33:14.920Z,96.20
2019-04-16T00:35:41.596Z,96.30
2019-04-16T00:38:08.688Z,96.00
2019-04-16T00:40:35.505Z,96.40
2019-04-16T00:43:02.374Z,96.30
2019-04-16T00:45:29.080Z,96.40
2019-04-16T00:47:55.747Z,96.60
2019-04-16T00:50:22.622Z,96.60
2019-04-16T00:52:49.308Z,96.90
2019-04-16T00:55:16.089Z,96.40
2019-04-16T00:57:42.900Z,96.70
2019-04-16T01:00:10.088Z,97.00
2019-04-16T01:02:38.763Z,97.10
2019-04-16T01:05:07.051Z,97.30
2019-04-16T01:07:33.804Z,96.90
2019-04-16T01:10:00.678Z,96.80
2019-04-16T01:12:27.414Z,97.10
2019-04-16T01:14:58.893Z,97.10
2019-04-16T01:17:22.933Z,97.10
2019-04-16T01:19:49.669Z,97.30
2019-04-16T01:22:16.851Z,97.60
2019-04-16T01:24:43.915Z,97.00
2019-04-16T01:27:10.654Z,97.60
2019-04-16T01:29:37.386Z,97.30
2019-04-16T01:32:12.148Z,96.90
2019-04-16T01:34:57.750Z,97.40
2019-04-16T01:37:36.417Z,97.30
2019-04-16T01:40:07.284Z,97.40
2019-04-16T01:42:34.055Z,97.20
2019-04-16T01:45:00.949Z,97.40
2019-04-16T01:47:27.893Z,97.50
2019-04-16T01:49:54.553Z,97.30
2019-04-16T01:52:21.359Z,97.40
2019-04-16T01:54:51.365Z,97.80
2019-04-16T01:57:17.540Z,97.60
2019-04-16T01:59:44.547Z,97.60
2019-04-16T02:02:14.801Z,97.60
2019-04-16T02:04:39.990Z,97.90
2019-04-16T02:07:06.774Z,98.10
2019-04-16T02:09:34.705Z,97.90
2019-04-16T02:12:02.294Z,97.70
2019-04-16T02:14:29.082Z,97.60
2019-04-16T02:16:57.640Z,97.30
2019-04-16T02:19:24.394Z,97.70
2019-04-16T02:21:52.145Z,97.80
2019-04-16T02:24:19.438Z,97.90
2019-04-16T02:26:46.167Z,97.70
2019-04-16T02:29:12.917Z,97.80
2019-04-16T02:31:39.728Z,97.50
2019-04-16T02:34:06.638Z,97.60
2019-04-16T02:36:33.417Z,97.40
2019-04-16T02:39:00.160Z,97.30
2019-04-16T02:41:27.111Z,97.50
2019-04-16T02:43:53.871Z,97.40
2019-04-16T02:46:20.739Z,97.90
2019-04-16T02:48:51.496Z,97.70
2019-04-16T02:51:39.541Z,97.90
2019-04-16T02:54:11.234Z,97.70
2019-04-16T02:56:51.606Z,97.80
2019-04-16T02:59:25.171Z,97.60
2019-04-16T03:02:10.333Z,97.70
2019-04-16T03:04:41.728Z,97.60
2019-04-16T03:07:08.525Z,97.70
2019-04-16T03:09:39.769Z,97.90
2019-04-16T03:12:03.657Z,97.70
2019-04-16T03:14:30.831Z,97.60
2019-04-16T03:17:15.448Z,97.60
2019-04-16T03:19:44.027Z,98.00
2019-04-16T03:22:11.017Z,97.90
2019-04-16T03:24:40.112Z,98.00
2019-04-16T03:27:06.212Z,97.50
2019-04-16T03:29:33.947Z,97.70
2019-04-16T03:32:00.787Z,98.00
2019-04-16T03:34:27.698Z,98.10
2019-04-16T03:36:54.452Z,98.10
2019-04-16T03:39:21.118Z,98.40
2019-04-16T03:41:47.766Z,98.50
2019-04-16T03:44:14.528Z,98.40
2019-04-16T03:46:46.308Z,98.30
2019-04-16T03:49:09.987Z,98.40
2019-04-16T03:51:37.864Z,98.40
2019-04-16T03:54:05.162Z,98.50
2019-04-16T03:56:32.051Z,98.40
2019-04-16T03:58:58.829Z,98.50
2019-04-16T04:01:25.692Z,98.50
2019-04-16T04:03:54.510Z,98.30
2019-04-16T04:06:21.187Z,98.40
2019-04-16T04:08:49.307Z,98.40
2019-04-16T04:11:16.439Z,97.80
2019-04-16T04:13:43.312Z,97.60
2019-04-16T04:16:10.088Z,97.90
2019-04-16T04:18:36.845Z,98.00
2019-04-16T04:21:03.643Z,98.00
2019-04-16T04:23:30.355Z,98.00
2019-04-16T04:25:57.102Z,98.00
2019-04-16T04:28:23.854Z,98.10
2019-04-16T04:30:50.654Z,98.20
2019-04-16T04:33:40.991Z,97.80
2019-04-16T04:36:06.237Z,98.10
2019-04-16T04:38:37.531Z,98.40
2019-04-16T04:41:03.137Z,98.20
2019-04-16T04:43:31.966Z,97.90
2019-04-16T04:45:58.376Z,97.70
2019-04-16T04:48:26.559Z,97.80
2019-04-16T04:50:53.247Z,97.90
2019-04-16T04:53:20.174Z,98.00
2019-04-16T04:55:47.103Z,97.90
2019-04-16T04:58:13.794Z,98.10
2019-04-16T05:00:41.189Z,98.60
2019-04-16T05:03:12.386Z,98.70
2019-04-16T05:05:40.380Z,98.40
2019-04-16T05:08:07.243Z,98.20
2019-04-16T05:10:36.689Z,98.40
2019-04-16T05:13:02.726Z,98.40
2019-04-16T05:15:30.094Z,97.80
2019-04-16T05:17:56.922Z,98.40
2019-04-16T05:20:23.706Z,97.90
2019-04-16T05:22:53.375Z,97.60
2019-04-16T05:25:19.141Z,98.30
2019-04-16T05:27:46.030Z,97.80
2019-04-16T05:30:13.377Z,97.60
2019-04-16T05:32:40.142Z,98.20
2019-04-16T05:35:10.196Z,98.30
2019-04-16T05:37:35.492Z,98.60
2019-04-16T05:40:04.824Z,98.40
2019-04-16T05:42:31.528Z,98.30
2019-04-16T05:44:58.419Z,98.20
2019-04-16T05:47:25.245Z,98.20
2019-04-16T05:49:54.455Z,98.00
2019-04-16T05:52:21.497Z,98.20
2019-04-16T05:55:05.140Z,97.90
2019-04-16T05:57:33.809Z,97.70
2019-04-16T06:00:03.393Z,97.10
2019-04-16T06:02:36.978Z,96.40
2019-04-16T06:05:05.140Z,95.50
2019-04-16T06:07:32.004Z,95.30
2019-04-16T06:09:59.005Z,95.40
2019-04-16T06:12:27.769Z,94.50
2019-04-16T06:14:59.007Z,93.20
2019-04-16T06:17:32.144Z,93.40
2019-04-16T06:20:03.307Z,93.60
2019-04-16T06:22:42.110Z,93.40
2019-04-16T06:25:27.366Z,92.40
2019-04-16T06:27:58.720Z,92.50
2019-04-16T06:30:33.024Z,90.60
2019-04-16T06:33:04.775Z,90.70
2019-04-16T06:35:50.521Z,90.40
2019-04-16T06:38:25.607Z,90.20
2019-04-16T06:40:54.318Z,87.70
2019-04-16T06:43:27.342Z,90.00
2019-04-16T06:46:05.527Z,90.00
2019-04-16T06:48:38.074Z,90.00
2019-04-16T06:51:11.756Z,88.50
2019-04-16T06:53:56.665Z,86.00
2019-04-16T06:56:41.163Z,84.70
2019-04-16T06:59:09.923Z,84.00
2019-04-16T07:01:54.910Z,84.10
2019-04-16T07:04:29.576Z,84.60
2019-04-16T07:07:11.346Z,82.40
2019-04-16T07:09:41.660Z,80.40
2019-04-16T07:12:10.079Z,82.10
2019-04-16T07:14:37.158Z,80.70
2019-04-16T07:17:04.024Z,79.00
2019-04-16T07:19:30.974Z,79.30
2019-04-16T07:21:57.811Z,79.40
2019-04-16T07:24:30.055Z,76.50
2019-04-16T07:26:56.198Z,77.80
2019-04-16T07:29:33.412Z,75.10
2019-04-16T07:32:02.412Z,74.10
2019-04-16T07:34:31.287Z,72.00
2019-04-16T07:37:00.948Z,70.20
2019-04-16T07:39:39.518Z,68.10
2019-04-16T07:42:11.143Z,65.20
2019-04-16T07:44:55.942Z,58.50
2019-04-16T07:47:24.752Z,60.40
2019-04-16T07:50:01.418Z,59.20
2019-04-16T07:52:30.010Z,58.10
2019-04-16T07:55:01.206Z,58.90
2019-04-16T07:57:27.939Z,56.80
2019-04-16T07:59:54.607Z,59.40
2019-04-16T08:02:22.572Z,55.90
2019-04-16T08:04:49.622Z,55.40
2019-04-16T08:07:20.195Z,55.40
2019-04-16T08:09:45.109Z,55.10
2019-04-16T08:12:28.973Z,55.10
2019-04-16T08:14:40.492Z,53.80
2019-04-16T08:17:07.501Z,53.40
2019-04-16T08:19:37.211Z,52.30
2019-04-16T08:22:03.045Z,51.10
2019-04-16T08:24:43.545Z,51.10
2019-04-16T08:27:10.930Z,51.30
2019-04-16T08:29:37.787Z,51.30
2019-04-16T08:32:04.771Z,52.50
2019-04-16T08:34:31.529Z,49.00
2019-04-16T08:36:58.404Z,50.30
2019-04-16T08:39:25.575Z,50.70
2019-04-16T08:41:53.090Z,50.70
2019-04-16T08:44:19.976Z,49.40
2019-04-16T08:46:46.996Z,48.20
2019-04-16T08:49:15.258Z,49.50
2019-04-16T08:51:42.137Z,47.00
2019-04-16T08:54:09.009Z,47.90
2019-04-16T08:56:35.660Z,48.00
2019-04-16T08:59:02.429Z,46.90
2019-04-16T09:01:31.046Z,48.40
2019-04-16T09:04:01.311Z,48.10
2019-04-16T09:06:26.445Z,46.40
2019-04-16T09:09:11.145Z,48.30
2019-04-16T09:11:28.466Z,45.10
2019-04-16T09:13:59.497Z,44.50
2019-04-16T09:16:26.648Z,46.20
2019-04-16T09:18:57.912Z,45.40
2019-04-16T09:21:27.808Z,46.00
2019-04-16T09:24:12.095Z,45.10
2019-04-16T09:26:43.720Z,44.20
2019-04-16T09:29:23.453Z,45.60
2019-04-16T09:32:08.845Z,44.00
2019-04-16T09:34:40.481Z,43.40
2019-04-16T09:37:14.813Z,44.10
2019-04-16T09:39:52.664Z,43.00
2019-04-16T09:42:19.468Z,42.90
2019-04-16T09:44:46.350Z,43.70
2019-04-16T09:47:13.593Z,42.50
2019-04-16T09:49:40.593Z,42.30
2019-04-16T09:52:07.411Z,42.10
2019-04-16T09:54:34.148Z,40.50
2019-04-16T09:57:01.017Z,40.70
2019-04-16T09:59:29.684Z,40.70
2019-04-16T10:01:58.480Z,41.50
2019-04-16T10:04:25.205Z,40.60
2019-04-16T10:06:51.872Z,38.70
2019-04-16T10:09:21.702Z,39.30
2019-04-16T10:11:47.421Z,38.90
2019-04-16T10:14:14.257Z,38.80
2019-04-16T10:16:41.282Z,37.90
2019-04-16T10:19:09.108Z,36.30
2019-04-16T10:21:36.083Z,34.30
2019-04-16T10:24:19.932Z,29.80
2019-04-16T10:26:48.614Z,27.10
2019-04-16T10:29:17.251Z,23.50
2019-04-16T10:31:44.193Z,21.90
2019-04-16T10:34:10.867Z,20.60
2019-04-16T10:36:38.166Z,20.90
2019-04-16T10:39:17.041Z,19.60
2019-04-16T10:42:02.673Z,18.80
2019-04-16T10:44:34.139Z,20.00
2019-04-16T10:47:20.477Z,21.40
2019-04-16T10:49:49.298Z,20.80
2019-04-16T10:52:18.027Z,20.50
2019-04-16T10:54:46.668Z,21.10
2019-04-16T10:57:18.136Z,20.70
2019-04-16T10:59:47.075Z,19.40
2019-04-16T11:02:24.860Z,19.80
2019-04-16T11:04:53.503Z,19.80
2019-04-16T11:07:24.964Z,22.20
2019-04-16T11:09:51.816Z,22.80
2019-04-16T11:12:19.882Z,22.90
2019-04-16T11:14:46.826Z,22.90
2019-04-16T11:17:13.724Z,22.60
2019-04-16T11:19:40.479Z,21.30
2019-04-16T11:22:07.388Z,21.10
2019-04-16T11:24:34.139Z,20.00
2019-04-16T11:27:00.845Z,21.90
2019-04-16T11:29:27.645Z,23.80
2019-04-16T11:31:54.541Z,24.40
2019-04-16T11:34:21.258Z,26.30
2019-04-16T11:36:48.186Z,26.80
2019-04-16T11:39:15.026Z,26.60
2019-04-16T11:41:41.906Z,25.80
2019-04-16T11:44:15.694Z,27.00
2019-04-16T11:46:37.458Z,29.40
2019-04-16T11:49:04.195Z,30.60
2019-04-16T11:51:30.974Z,31.10
2019-04-16T11:53:57.740Z,30.10
2019-04-16T11:56:24.574Z,31.50
2019-04-16T11:58:51.339Z,30.50
2019-04-16T12:01:25.573Z,31.10
2019-04-16T12:03:57.061Z,33.30
2019-04-16T12:06:40.803Z,32.20
2019-04-16T12:09:25.969Z,32.50
2019-04-16T12:11:57.510Z,33.50
2019-04-16T12:14:32.435Z,32.10
2019-04-16T12:17:08.576Z,33.10
2019-04-16T12:19:37.652Z,32.10
2019-04-16T12:22:22.578Z,30.40
2019-04-16T12:25:03.376Z,32.10
2019-04-16T12:27:34.863Z,30.90
2019-04-16T12:30:20.667Z,31.90
2019-04-16T12:33:08.773Z,32.00
2019-04-16T12:35:36.141Z,33.00
2019-04-16T12:38:17.980Z,32.30
2019-04-16T12:40:59.207Z,33.70
2019-04-16T12:43:33.835Z,33.50
2019-04-16T12:46:08.215Z,32.80
2019-04-16T12:48:37.000Z,33.20
2019-04-16T12:51:23.825Z,31.80
2019-04-16T12:54:09.391Z,33.40
2019-04-16T12:56:41.360Z,33.60
2019-04-16T12:59:23.000Z,33.40
2019-04-16T13:02:12.104Z,34.10
2019-04-16T13:04:37.925Z,32.30
2019-04-16T13:07:06.775Z,31.10
2019-04-16T13:09:44.580Z,32.00
2019-04-16T13:12:32.698Z,30.70
2019-04-16T13:15:10.097Z,31.30
2019-04-16T13:17:44.594Z,30.40
2019-04-16T13:20:29.318Z,31.50
2019-04-16T13:22:56.395Z,31.90
2019-04-16T13:25:24.955Z,32.60
2019-04-16T13:27:52.653Z,34.00
2019-04-16T13:30:19.455Z,34.80
2019-04-16T13:32:46.254Z,32.90
2019-04-16T13:35:13.049Z,32.50
2019-04-16T13:38:22.868Z,33.10
2019-04-16T13:40:50.211Z,33.50
2019-04-16T13:43:25.889Z,33.40
2019-04-16T13:45:57.923Z,34.10
2019-04-16T13:48:42.341Z,32.70
2019-04-16T13:51:15.134Z,34.10
2019-04-16T13:53:41.597Z,34.90
2019-04-16T13:56:22.662Z,34.60
2019-04-16T13:58:51.510Z,35.40
2019-04-16T14:01:21.913Z,33.60
2019-04-16T14:03:48.748Z,34.50
2019-04-16T14:06:15.479Z,35.50
2019-04-16T14:08:42.271Z,35.40
2019-04-16T14:11:09.622Z,36.30
2019-04-16T14:13:36.420Z,36.30
2019-04-16T14:16:04.751Z,33.30
2019-04-16T14:18:32.741Z,33.00
2019-04-16T14:21:00.072Z,32.60
2019-04-16T14:23:26.911Z,32.10
2019-04-16T14:25:53.642Z,33.10
2019-04-16T14:28:20.413Z,34.60
2019-04-16T14:30:48.433Z,33.00
2019-04-16T14:33:17.167Z,33.10
2019-04-16T14:35:43.981Z,33.70
2019-04-16T14:38:12.674Z,34.30
2019-04-16T14:40:39.717Z,35.00
2019-04-16T14:43:08.105Z,35.90
2019-04-16T14:45:56.820Z,35.20
2019-04-16T14:48:10.210Z,36.60
2019-04-16T14:50:37.229Z,36.70
2019-04-16T14:53:04.023Z,36.70
2019-04-16T14:55:35.519Z,36.80
2019-04-16T14:58:07.045Z,38.30
2019-04-16T15:00:35.921Z,37.10
2019-04-16T15:03:04.710Z,37.10
2019-04-16T15:05:33.330Z,37.60
2019-04-16T15:08:02.142Z,39.00
2019-04-16T15:10:36.460Z,37.90
2019-04-16T15:13:16.923Z,36.00
2019-04-16T15:15:46.235Z,36.70
2019-04-16T15:18:20.781Z,38.50
2019-04-16T15:20:52.335Z,38.30
2019-04-16T15:23:24.066Z,36.60
2019-04-16T15:25:52.726Z,36.90
2019-04-16T15:28:21.444Z,37.90
2019-04-16T15:30:49.970Z,39.20
2019-04-16T15:33:35.772Z,38.20
2019-04-16T15:36:08.080Z,38.10
2019-04-16T15:38:53.112Z,37.40
2019-04-16T15:41:33.896Z,37.40
2019-04-16T15:44:02.590Z,38.00
2019-04-16T15:46:48.105Z,38.30
2019-04-16T15:49:32.170Z,39.60
2019-04-16T15:52:17.273Z,38.20
2019-04-16T15:54:45.967Z,38.40
2019-04-16T15:57:17.174Z,38.00
2019-04-16T15:59:46.855Z,38.40
2019-04-16T16:02:27.594Z,39.10
2019-04-16T16:04:56.295Z,38.30
2019-04-16T16:07:24.256Z,39.70
2019-04-16T16:10:13.799Z,38.30
2019-04-16T16:12:38.487Z,39.40
2019-04-16T16:15:09.021Z,39.10
2019-04-16T16:17:35.888Z,39.00
2019-04-16T16:20:09.681Z,39.70
2019-04-16T16:22:33.949Z,41.20
2019-04-16T16:25:00.853Z,40.10
2019-04-16T16:27:27.834Z,40.00
2019-04-16T16:29:54.744Z,40.20
2019-04-16T16:32:21.554Z,40.80
2019-04-16T16:34:48.411Z,41.20
2019-04-16T16:37:15.297Z,41.80
2019-04-16T16:39:42.085Z,42.10
2019-04-16T16:42:09.049Z,41.70
2019-04-16T16:44:35.948Z,44.80
2019-04-16T16:47:04.801Z,47.60
2019-04-16T16:49:31.646Z,48.90
2019-04-16T16:52:03.389Z,50.90
2019-04-16T16:54:30.128Z,54.10
2019-04-16T16:57:07.753Z,49.90
2019-04-16T16:59:47.190Z,49.80
2019-04-16T17:02:15.988Z,52.00
2019-04-16T17:04:44.643Z,53.30
2019-04-16T17:07:11.315Z,54.60
2019-04-16T17:09:38.130Z,53.10
2019-04-16T17:12:04.878Z,54.20
2019-04-16T17:14:36.423Z,57.30
2019-04-16T17:17:12.813Z,55.40
2019-04-16T17:19:29.845Z,56.40
2019-04-16T17:21:56.520Z,57.00
2019-04-16T17:24:23.336Z,57.60
2019-04-16T17:26:50.684Z,57.30
2019-04-16T17:29:17.563Z,58.00
2019-04-16T17:31:44.474Z,57.60
2019-04-16T17:34:11.313Z,57.70
2019-04-16T17:36:39.317Z,57.70
2019-04-16T17:39:09.082Z,59.20
2019-04-16T17:41:37.421Z,62.70
2019-04-16T17:44:08.645Z,61.90
2019-04-16T17:46:37.320Z,60.90
2019-04-16T17:49:05.983Z,62.30
2019-04-16T17:51:34.756Z,65.90
2019-04-16T17:54:09.545Z,64.20
2019-04-16T17:56:38.218Z,63.10
2019-04-16T17:59:16.035Z,64.70
2019-04-16T18:01:47.792Z,65.90
2019-04-16T18:04:34.266Z,64.80
2019-04-16T18:07:18.007Z,65.00
2019-04-16T18:10:00.127Z,64.90
2019-04-16T18:12:34.796Z,65.70
2019-04-16T18:15:08.953Z,67.50
2019-04-16T18:17:47.026Z,68.00
2019-04-16T18:20:22.290Z,68.20
2019-04-16T18:22:53.797Z,67.70
2019-04-16T18:25:38.544Z,68.50
2019-04-16T18:28:13.127Z,70.90
2019-04-16T18:30:47.350Z,71.90
2019-04-16T18:33:33.902Z,72.00
2019-04-16T18:36:05.518Z,72.50
2019-04-16T18:38:50.783Z,72.00
2019-04-16T18:41:19.450Z,72.50
2019-04-16T18:43:53.764Z,74.10
2019-04-16T18:46:22.560Z,74.50
2019-04-16T18:48:55.028Z,74.60
2019-04-16T18:51:23.915Z,74.70
2019-04-16T18:53:50.804Z,75.10
2019-04-16T18:56:17.699Z,74.30
2019-04-16T18:58:44.471Z,75.40
2019-04-16T19:01:19.289Z,75.70
2019-04-16T19:03:46.185Z,76.50
2019-04-16T19:06:13.247Z,75.90
2019-04-16T19:08:41.868Z,76.30
2019-04-16T19:11:08.524Z,76.30
2019-04-16T19:13:35.273Z,77.00
2019-04-16T19:16:02.060Z,76.10
2019-04-16T19:18:29.027Z,75.80
2019-04-16T19:20:55.821Z,76.80
2019-04-16T19:23:22.703Z,77.10
2019-04-16T19:25:51.851Z,77.60
2019-04-16T19:28:20.179Z,78.20
2019-04-16T19:30:47.381Z,78.60
2019-04-16T19:33:14.091Z,78.60
2019-04-16T19:35:41.963Z,79.20
2019-04-16T19:38:08.812Z,78.80
2019-04-16T19:40:35.453Z,79.30
2019-04-16T19:43:03.154Z,79.40
2019-04-16T19:45:31.425Z,80.00
2019-04-16T19:48:00.826Z,80.70
2019-04-16T19:50:33.198Z,81.30
2019-04-16T19:52:55.879Z,81.60
2019-04-16T19:55:22.762Z,81.60
2019-04-16T19:57:49.615Z,82.00
2019-04-16T20:00:21.991Z,81.70
2019-04-16T20:02:45.168Z,82.40
2019-04-16T20:05:15.350Z,82.90
2019-04-16T20:07:41.618Z,82.90
2019-04-16T20:10:08.625Z,82.80
2019-04-16T20:12:35.500Z,83.30
2019-04-16T20:15:07.738Z,83.10
2019-04-16T20:17:30.957Z,83.00
2019-04-16T20:19:58.140Z,83.60
2019-04-16T20:22:27.547Z,82.80
2019-04-16T20:24:54.286Z,83.50
2019-04-16T20:27:21.026Z,83.90
2019-04-16T20:29:47.963Z,84.00
2019-04-16T20:32:14.863Z,84.50
2019-04-16T20:34:42.329Z,84.10
2019-04-16T20:37:11.319Z,84.40
2019-04-16T20:39:40.733Z,84.10
2019-04-16T20:42:06.745Z,84.20
2019-04-16T20:44:33.613Z,83.90
2019-04-16T20:47:03.348Z,84.40
2019-04-16T20:49:28.878Z,84.70
2019-04-16T20:51:59.991Z,84.50
2019-04-16T20:54:24.323Z,85.00
2019-04-16T20:56:53.319Z,85.30
2019-04-16T20:59:19.732Z,85.00
2019-04-16T21:01:46.496Z,85.10
2019-04-16T21:04:13.360Z,84.50
2019-04-16T21:06:41.953Z,85.10
2019-04-16T21:09:08.926Z,86.00
2019-04-16T21:11:40.881Z,86.30
2019-04-16T21:14:06.128Z,86.00
2019-04-16T21:16:33.929Z,86.20
2019-04-16T21:19:01.664Z,86.80
2019-04-16T21:21:29.487Z,87.20
2019-04-16T21:23:56.149Z,87.80
2019-04-16T21:26:23.130Z,88.10
2019-04-16T21:28:51.713Z,88.70
2019-04-16T21:31:20.363Z,88.80
2019-04-16T21:34:03.815Z,89.60
2019-04-16T21:36:33.885Z,89.90
2019-04-16T21:39:09.174Z,88.60
2019-04-16T21:41:37.839Z,89.60
2019-04-16T21:44:04.504Z,89.40
2019-04-16T21:46:31.274Z,88.40
2019-04-16T21:48:59.792Z,87.70
2019-04-16T21:51:26.778Z,87.90
2019-04-16T21:53:53.574Z,87.90
2019-04-16T21:56:20.337Z,89.20
2019-04-16T21:58:50.125Z,88.70
2019-04-16T22:01:17.644Z,88.60
2019-04-16T22:03:46.334Z,89.70
2019-04-16T22:06:13.220Z,90.00
2019-04-16T22:08:40.218Z,89.40
2019-04-16T22:11:08.529Z,89.10
2019-04-16T22:13:35.544Z,90.00
2019-04-16T22:16:02.716Z,90.60
2019-04-16T22:18:29.423Z,90.10
2019-04-16T22:20:56.129Z,90.50
2019-04-16T22:23:22.985Z,90.40
2019-04-16T22:25:49.681Z,90.80
2019-04-16T22:28:16.340Z,90.90
2019-04-16T22:30:43.328Z,90.90
2019-04-16T22:33:10.230Z,91.10
2019-04-16T22:35:37.107Z,91.10
2019-04-16T22:38:03.771Z,91.30
2019-04-16T22:40:32.702Z,91.40
2019-04-16T22:43:06.876Z,91.40
2019-04-16T22:45:31.754Z,91.70
2019-04-16T22:47:58.693Z,91.60
2019-04-16T22:50:25.640Z,91.70
2019-04-16T22:52:52.392Z,91.70
2019-04-16T22:55:24.570Z,91.30
2019-04-16T22:57:47.852Z,91.80
2019-04-16T23:00:16.613Z,91.80
2019-04-16T23:02:48.294Z,92.00
2019-04-16T23:05:14.229Z,91.80
2019-04-16T23:07:40.904Z,92.00
2019-04-16T23:10:08.008Z,92.10
2019-04-16T23:12:34.832Z,91.70
2019-04-16T23:15:01.780Z,91.80
2019-04-16T23:17:28.903Z,91.90
2019-04-16T23:19:55.707Z,91.80
2019-04-16T23:22:22.491Z,91.90
2019-04-16T23:24:51.784Z,92.10
2019-04-16T23:27:17.767Z,92.20
2019-04-16T23:29:47.295Z,91.80
2019-04-16T23:32:13.219Z,92.00
2019-04-16T23:34:39.975Z,92.10
2019-04-16T23:37:06.651Z,92.50
2019-04-16T23:39:33.576Z,92.60
2019-04-16T23:42:02.011Z,92.50
2019-04-16T23:44:30.582Z,92.40
2019-04-16T23:47:15.675Z,92.70
2019-04-16T23:49:48.229Z,92.80
2019-04-16T23:52:16.918Z,92.70
2019-04-16T23:54:54.126Z,92.70
2019-04-16T23:57:25.635Z,92.70
